createdAt,value
2022-08-29T00:00:53.355Z,99.90
2022-08-29T00:03:22.808Z,99.90
2022-08-29T00:05:51.816Z,99.90
2022-08-29T00:08:21.130Z,99.90
2022-08-29T00:10:50.515Z,99.90
2022-08-29T00:13:19.425Z,99.90
2022-08-29T00:15:48.457Z,99.90
2022-08-29T00:18:21.654Z,99.90
2022-08-29T00:20:50.175Z,99.90
2022-08-29T00:23:19.316Z,99.90
2022-08-29T00:25:48.076Z,99.90
2022-08-29T00:28:16.713Z,99.90
2022-08-29T00:30:46.363Z,99.90
2022-08-29T00:33:15.085Z,99.90
2022-08-29T00:35:46.762Z,99.90
2022-08-29T00:38:19.251Z,99.90
2022-08-29T00:40:51.574Z,99.90
2022-08-29T00:43:32.023Z,99.90
2022-08-29T00:46:09.695Z,99.90
2022-08-29T00:48:40.769Z,99.90
2022-08-29T00:51:17.091Z,99.90
2022-08-29T00:53:49.507Z,99.90
2022-08-29T00:56:19.333Z,99.90
2022-08-29T00:58:51.340Z,99.90
2022-08-29T01:01:20.229Z,99.90
2022-08-29T01:03:49.485Z,99.90
2022-08-29T01:06:22.681Z,99.90
2022-08-29T01:08:57.681Z,99.90
2022-08-29T01:11:48.155Z,99.90
2022-08-29T01:14:20.657Z,99.90
2022-08-29T01:16:51.373Z,99.90
2022-08-29T01:19:31.172Z,99.90
2022-08-29T01:22:11.492Z,99.90
2022-08-29T01:24:44.088Z,99.90
2022-08-29T01:27:14.259Z,99.90
2022-08-29T01:29:43.611Z,99.90
2022-08-29T01:32:12.893Z,99.90
2022-08-29T01:34:42.969Z,99.90
2022-08-29T01:37:15.981Z,99.90
2022-08-29T01:39:46.983Z,99.90
2022-08-29T01:42:20.804Z,99.90
2022-08-29T01:44:52.259Z,99.90
2022-08-29T01:47:22.460Z,99.90
2022-08-29T01:49:51.998Z,99.90
2022-08-29T01:52:21.261Z,99.90
2022-08-29T01:54:51.728Z,99.90
2022-08-29T01:57:20.818Z,99.90
2022-08-29T01:59:50.148Z,99.90
2022-08-29T02:02:21.661Z,99.90
2022-08-29T02:04:50.647Z,99.90
2022-08-29T02:07:21.717Z,99.90
2022-08-29T02:09:53.114Z,99.90
2022-08-29T02:12:23.089Z,99.90
2022-08-29T02:14:53.836Z,99.90
2022-08-29T02:17:24.150Z,99.90
2022-08-29T02:19:53.148Z,99.90
2022-08-29T02:22:21.911Z,99.90
2022-08-29T02:24:51.894Z,99.90
2022-08-29T02:27:20.938Z,99.90
2022-08-29T02:29:49.928Z,99.90
2022-08-29T02:32:18.871Z,99.90
2022-08-29T02:34:48.713Z,99.90
2022-08-29T02:37:18.582Z,99.90
2022-08-29T02:39:47.416Z,99.90
2022-08-29T02:42:17.887Z,99.90
2022-08-29T02:44:48.404Z,99.90
2022-08-29T02:47:17.934Z,99.90
2022-08-29T02:49:47.080Z,99.90
2022-08-29T02:52:17.759Z,99.90
2022-08-29T02:54:46.929Z,99.90
2022-08-29T02:57:18.713Z,99.90
2022-08-29T02:59:47.761Z,99.90
2022-08-29T03:02:16.252Z,99.90
2022-08-29T03:04:45.124Z,99.90
2022-08-29T03:07:14.203Z,99.90
2022-08-29T03:09:42.826Z,99.90
2022-08-29T03:12:11.535Z,99.90
2022-08-29T03:14:42.307Z,99.90
2022-08-29T03:17:12.046Z,99.90
2022-08-29T03:19:41.306Z,99.90
2022-08-29T03:22:10.055Z,99.90
2022-08-29T03:24:39.468Z,99.90
2022-08-29T03:27:08.349Z,99.90
2022-08-29T03:29:37.786Z,99.90
2022-08-29T03:32:08.400Z,99.90
2022-08-29T03:34:37.637Z,99.90
2022-08-29T03:37:07.236Z,99.90
2022-08-29T03:39:38.210Z,99.90
2022-08-29T03:42:08.652Z,99.90
2022-08-29T03:44:39.701Z,99.90
2022-08-29T03:47:10.677Z,99.90
2022-08-29T03:49:39.469Z,99.90
2022-08-29T03:52:09.849Z,99.90
2022-08-29T03:54:39.777Z,99.90
2022-08-29T03:57:09.480Z,99.90
2022-08-29T03:59:38.351Z,99.90
2022-08-29T04:02:07.650Z,99.90
2022-08-29T04:04:54.701Z,99.90
2022-08-29T04:07:23.282Z,99.90
2022-08-29T04:09:51.626Z,99.90
2022-08-29T04:12:21.346Z,99.90
2022-08-29T04:14:50.013Z,99.90
2022-08-29T04:17:18.531Z,99.90
2022-08-29T04:19:48.349Z,99.90
2022-08-29T04:22:17.007Z,99.90
2022-08-29T04:24:45.390Z,99.90
2022-08-29T04:27:13.824Z,99.90
2022-08-29T04:29:43.633Z,99.90
2022-08-29T04:32:12.072Z,99.90
2022-08-29T04:34:40.510Z,99.90
2022-08-29T04:37:11.301Z,99.90
2022-08-29T04:39:39.868Z,99.90
2022-08-29T04:42:08.385Z,99.90
2022-08-29T04:44:36.998Z,99.90
2022-08-29T04:47:05.493Z,99.90
2022-08-29T04:49:34.045Z,99.90
2022-08-29T04:52:02.804Z,99.90
2022-08-29T04:54:32.625Z,99.90
2022-08-29T04:57:03.355Z,99.90
2022-08-29T04:59:34.127Z,99.90
2022-08-29T05:02:03.709Z,99.90
2022-08-29T05:04:32.166Z,99.90
2022-08-29T05:07:00.808Z,99.90
2022-08-29T05:09:29.333Z,99.90
2022-08-29T05:11:59.090Z,99.90
2022-08-29T05:14:27.854Z,99.90
2022-08-29T05:16:56.863Z,99.90
2022-08-29T05:19:25.279Z,99.90
2022-08-29T05:21:58.063Z,99.90
2022-08-29T05:24:27.022Z,99.90
2022-08-29T05:26:55.719Z,99.90
2022-08-29T05:29:25.569Z,99.90
2022-08-29T05:31:53.928Z,99.90
2022-08-29T05:34:34.331Z,99.90
2022-08-29T05:37:04.617Z,99.90
2022-08-29T05:39:33.984Z,99.90
2022-08-29T05:42:03.395Z,99.90
2022-08-29T05:44:35.488Z,99.90
2022-08-29T05:47:05.284Z,99.90
2022-08-29T05:49:33.995Z,99.90
2022-08-29T05:52:02.439Z,99.90
2022-08-29T05:54:33.346Z,99.90
2022-08-29T05:57:02.062Z,99.90
2022-08-29T05:59:31.945Z,99.90
2022-08-29T06:02:02.269Z,99.90
2022-08-29T06:04:31.136Z,99.90
2022-08-29T06:06:59.697Z,99.90
2022-08-29T06:09:30.125Z,99.90
2022-08-29T06:11:59.280Z,99.90
2022-08-29T06:14:27.877Z,99.90
2022-08-29T06:16:56.661Z,99.90
2022-08-29T06:19:29.254Z,99.90
2022-08-29T06:21:58.129Z,99.90
2022-08-29T06:24:26.915Z,99.90
2022-08-29T06:26:55.355Z,99.90
2022-08-29T06:29:23.697Z,99.90
2022-08-29T06:31:52.398Z,99.90
2022-08-29T06:34:20.789Z,99.90
2022-08-29T06:36:51.351Z,99.90
2022-08-29T06:39:20.813Z,99.90
2022-08-29T06:41:49.446Z,99.90
2022-08-29T06:44:18.903Z,99.90
2022-08-29T06:46:50.033Z,99.90
2022-08-29T06:49:20.188Z,99.90
2022-08-29T06:51:57.638Z,99.90
2022-08-29T06:54:28.960Z,99.90
2022-08-29T06:56:59.787Z,99.90
2022-08-29T06:59:29.701Z,99.90
2022-08-29T07:01:58.159Z,99.90
2022-08-29T07:04:27.028Z,99.90
2022-08-29T07:06:57.055Z,99.90
2022-08-29T07:09:27.275Z,99.90
2022-08-29T07:11:57.740Z,99.90
2022-08-29T07:14:26.466Z,99.90
2022-08-29T07:16:58.935Z,99.90
2022-08-29T07:19:28.489Z,99.90
2022-08-29T07:21:59.563Z,99.90
2022-08-29T07:24:28.361Z,99.90
2022-08-29T07:26:57.043Z,99.90
2022-08-29T07:29:25.455Z,99.90
2022-08-29T07:31:54.672Z,99.90
2022-08-29T07:34:23.334Z,99.90
2022-08-29T07:36:51.868Z,99.90
2022-08-29T07:39:22.988Z,99.90
2022-08-29T07:41:51.601Z,99.90
2022-08-29T07:44:20.408Z,99.90
2022-08-29T07:46:48.818Z,99.90
2022-08-29T07:49:17.504Z,99.20
2022-08-29T07:51:45.920Z,98.70
2022-08-29T07:54:16.879Z,99.10
2022-08-29T07:56:49.093Z,98.90
2022-08-29T07:59:19.361Z,99.40
2022-08-29T08:01:48.509Z,99.90
2022-08-29T08:04:17.230Z,99.20
2022-08-29T08:06:48.483Z,98.90
2022-08-29T08:09:17.964Z,98.90
2022-08-29T08:11:47.950Z,99.10
2022-08-29T08:14:16.424Z,98.70
2022-08-29T08:16:45.155Z,99.90
2022-08-29T08:19:14.361Z,99.90
2022-08-29T08:21:49.551Z,99.90
2022-08-29T08:24:20.279Z,97.40
2022-08-29T08:26:50.742Z,95.90
2022-08-29T08:29:20.007Z,95.60
2022-08-29T08:31:51.693Z,94.00
2022-08-29T08:34:21.406Z,94.00
2022-08-29T08:36:50.598Z,92.40
2022-08-29T08:39:20.011Z,92.10
2022-08-29T08:41:55.913Z,92.20
2022-08-29T08:44:56.007Z,92.60
2022-08-29T08:47:29.062Z,92.50
2022-08-29T08:50:02.877Z,92.80
2022-08-29T08:52:39.100Z,93.30
2022-08-29T08:55:17.212Z,93.90
2022-08-29T08:57:58.259Z,93.90
2022-08-29T09:00:28.056Z,93.10
2022-08-29T09:03:09.182Z,92.90
2022-08-29T09:05:54.453Z,93.70
2022-08-29T09:08:31.134Z,93.80
2022-08-29T09:11:05.102Z,94.30
2022-08-29T09:13:51.098Z,94.80
2022-08-29T09:16:27.535Z,93.50
2022-08-29T09:19:02.089Z,93.30
2022-08-29T09:21:41.087Z,93.60
2022-08-29T09:24:15.369Z,93.10
2022-08-29T09:26:44.459Z,92.90
2022-08-29T09:29:14.487Z,91.60
2022-08-29T09:31:43.521Z,90.00
2022-08-29T09:34:15.544Z,90.10
2022-08-29T09:36:47.967Z,90.10
2022-08-29T09:39:23.311Z,90.60
2022-08-29T09:41:54.463Z,89.10
2022-08-29T09:44:28.379Z,90.10
2022-08-29T09:47:08.053Z,88.10
2022-08-29T09:49:38.494Z,88.10
2022-08-29T09:52:13.587Z,86.80
2022-08-29T09:54:43.995Z,86.60
2022-08-29T09:57:22.487Z,86.70
2022-08-29T10:00:13.290Z,85.80
2022-08-29T10:02:47.627Z,85.70
2022-08-29T10:05:34.906Z,86.40
2022-08-29T10:08:05.257Z,87.40
2022-08-29T10:10:36.382Z,85.60
2022-08-29T10:13:12.044Z,86.30
2022-08-29T10:15:52.537Z,86.40
2022-08-29T10:18:34.158Z,85.90
2022-08-29T10:21:16.882Z,85.60
2022-08-29T10:24:00.648Z,84.70
2022-08-29T10:26:37.728Z,84.40
2022-08-29T10:29:14.580Z,84.60
2022-08-29T10:31:53.105Z,83.90
2022-08-29T10:34:34.510Z,83.70
2022-08-29T10:37:12.736Z,84.00
2022-08-29T10:39:51.513Z,83.70
2022-08-29T10:42:26.389Z,82.90
2022-08-29T10:45:08.072Z,83.10
2022-08-29T10:47:46.429Z,82.90
2022-08-29T10:50:45.709Z,82.40
2022-08-29T10:53:19.799Z,82.00
2022-08-29T10:55:55.967Z,82.20
2022-08-29T10:58:44.930Z,82.50
2022-08-29T11:01:22.319Z,82.40
2022-08-29T11:04:06.709Z,82.10
2022-08-29T11:06:38.805Z,81.40
2022-08-29T11:09:11.961Z,81.90
2022-08-29T11:11:45.893Z,81.60
2022-08-29T11:14:24.420Z,81.90
2022-08-29T11:16:56.327Z,81.80
2022-08-29T11:19:33.030Z,82.20
2022-08-29T11:22:05.771Z,82.60
2022-08-29T11:24:38.144Z,81.40
2022-08-29T11:27:22.835Z,81.20
2022-08-29T11:29:59.144Z,81.00
2022-08-29T11:32:40.055Z,81.40
2022-08-29T11:35:18.086Z,81.00
2022-08-29T11:38:22.351Z,81.40
2022-08-29T11:41:32.103Z,81.20
2022-08-29T11:44:16.477Z,80.60
2022-08-29T11:46:53.278Z,79.90
2022-08-29T11:49:44.165Z,79.60
2022-08-29T11:52:22.718Z,79.60
2022-08-29T11:54:54.770Z,80.00
2022-08-29T11:57:51.206Z,80.00
2022-08-29T12:00:37.021Z,80.20
2022-08-29T12:03:28.750Z,78.60
2022-08-29T12:06:04.172Z,78.30
2022-08-29T12:08:39.182Z,78.60
2022-08-29T12:11:08.752Z,78.40
2022-08-29T12:14:04.941Z,78.90
2022-08-29T12:16:53.286Z,79.20
2022-08-29T12:19:53.621Z,79.20
2022-08-29T12:22:48.012Z,78.90
2022-08-29T12:25:48.083Z,78.90
2022-08-29T12:28:40.742Z,78.10
2022-08-29T12:31:33.931Z,78.60
2022-08-29T12:34:14.685Z,78.50
2022-08-29T12:36:55.945Z,78.50
2022-08-29T12:39:58.443Z,78.00
2022-08-29T12:42:40.670Z,76.90
2022-08-29T12:45:14.768Z,77.00
2022-08-29T12:47:49.076Z,76.50
2022-08-29T12:50:21.865Z,76.90
2022-08-29T12:53:03.171Z,76.10
2022-08-29T12:55:38.647Z,75.80
2022-08-29T12:58:11.340Z,75.70
2022-08-29T13:00:41.340Z,76.10
2022-08-29T13:03:15.027Z,75.20
2022-08-29T13:05:45.746Z,74.80
2022-08-29T13:08:17.721Z,74.50
2022-08-29T13:10:56.295Z,74.50
2022-08-29T13:13:29.727Z,73.50
2022-08-29T13:16:12.152Z,72.30
2022-08-29T13:19:07.750Z,72.20
2022-08-29T13:21:40.802Z,72.60
2022-08-29T13:24:14.306Z,73.10
2022-08-29T13:27:05.879Z,72.00
2022-08-29T13:29:41.347Z,72.10
2022-08-29T13:32:24.384Z,72.10
2022-08-29T13:35:07.456Z,71.30
2022-08-29T13:37:46.361Z,71.10
2022-08-29T13:40:36.965Z,72.00
2022-08-29T13:43:08.211Z,72.00
2022-08-29T13:45:40.629Z,70.20
2022-08-29T13:48:20.919Z,69.70
2022-08-29T13:50:50.847Z,69.30
2022-08-29T13:53:20.043Z,69.10
2022-08-29T13:55:49.065Z,69.60
2022-08-29T13:58:21.783Z,68.90
2022-08-29T14:00:52.955Z,69.20
2022-08-29T14:03:34.040Z,69.10
2022-08-29T14:06:06.766Z,69.40
2022-08-29T14:08:43.335Z,68.10
2022-08-29T14:11:21.518Z,66.60
2022-08-29T14:13:51.337Z,67.20
2022-08-29T14:16:25.279Z,67.20
2022-08-29T14:18:56.744Z,66.30
2022-08-29T14:21:26.516Z,65.60
2022-08-29T14:23:56.621Z,65.00
2022-08-29T14:26:30.613Z,64.60
2022-08-29T14:29:03.271Z,63.80
2022-08-29T14:31:36.479Z,63.10
2022-08-29T14:34:08.498Z,62.00
2022-08-29T14:36:43.067Z,61.00
2022-08-29T14:39:18.666Z,60.50
2022-08-29T14:42:02.449Z,59.20
2022-08-29T14:44:32.004Z,58.30
2022-08-29T14:47:02.264Z,58.00
2022-08-29T14:49:33.142Z,58.60
2022-08-29T14:52:01.956Z,57.50
2022-08-29T14:54:31.900Z,56.50
2022-08-29T14:57:03.894Z,56.70
2022-08-29T14:59:34.361Z,55.00
2022-08-29T15:02:12.070Z,55.20
2022-08-29T15:04:46.384Z,55.50
2022-08-29T15:07:17.520Z,55.50
2022-08-29T15:09:50.303Z,54.90
2022-08-29T15:12:18.754Z,55.80
2022-08-29T15:14:48.018Z,55.50
2022-08-29T15:17:21.062Z,57.10
2022-08-29T15:20:35.841Z,57.00
2022-08-29T15:22:45.727Z,57.80
2022-08-29T15:25:14.726Z,58.80
2022-08-29T15:27:43.499Z,60.40
2022-08-29T15:30:13.394Z,60.60
2022-08-29T15:32:44.121Z,61.10
2022-08-29T15:35:18.039Z,61.30
2022-08-29T15:37:46.900Z,61.60
2022-08-29T15:40:15.798Z,62.60
2022-08-29T15:42:45.437Z,63.40
2022-08-29T15:45:14.993Z,64.70
2022-08-29T15:47:46.062Z,66.10
2022-08-29T15:50:17.433Z,65.90
2022-08-29T15:52:46.140Z,65.90
2022-08-29T15:55:15.523Z,66.00
2022-08-29T15:57:52.277Z,66.50
2022-08-29T16:00:29.890Z,66.50
2022-08-29T16:03:04.804Z,66.70
2022-08-29T16:05:34.961Z,67.70
2022-08-29T16:08:06.568Z,68.00
2022-08-29T16:10:36.293Z,68.50
2022-08-29T16:13:05.999Z,69.10
2022-08-29T16:15:34.961Z,69.50
2022-08-29T16:18:06.804Z,69.90
2022-08-29T16:20:37.937Z,70.70
2022-08-29T16:23:06.929Z,71.10
2022-08-29T16:25:36.482Z,71.70
2022-08-29T16:28:06.145Z,71.20
2022-08-29T16:30:35.276Z,71.40
2022-08-29T16:33:14.572Z,71.50
2022-08-29T16:35:43.509Z,72.00
2022-08-29T16:38:12.426Z,72.10
2022-08-29T16:40:41.823Z,71.60
2022-08-29T16:43:11.077Z,71.50
2022-08-29T16:45:39.793Z,72.10
2022-08-29T16:48:15.591Z,72.20
2022-08-29T16:50:47.583Z,72.50
2022-08-29T16:53:16.434Z,72.80
2022-08-29T16:55:45.012Z,73.40
2022-08-29T16:58:31.219Z,74.20
2022-08-29T17:01:01.468Z,75.50
2022-08-29T17:03:30.365Z,75.20
2022-08-29T17:06:01.723Z,75.60
2022-08-29T17:08:29.297Z,75.80
2022-08-29T17:10:57.984Z,76.80
2022-08-29T17:13:25.878Z,77.20
2022-08-29T17:15:53.352Z,78.50
2022-08-29T17:18:22.245Z,78.60
2022-08-29T17:20:52.837Z,78.60
2022-08-29T17:23:23.297Z,78.40
2022-08-29T17:25:52.162Z,79.10
2022-08-29T17:28:21.091Z,79.50
2022-08-29T17:30:50.785Z,79.50
2022-08-29T17:33:20.283Z,79.80
2022-08-29T17:35:49.338Z,79.70
2022-08-29T17:38:19.992Z,80.40
2022-08-29T17:40:51.489Z,80.50
2022-08-29T17:43:21.515Z,80.90
2022-08-29T17:45:50.547Z,81.30
2022-08-29T17:48:19.913Z,81.50
2022-08-29T17:50:49.595Z,81.90
2022-08-29T17:53:20.955Z,82.50
2022-08-29T17:55:51.836Z,82.60
2022-08-29T17:58:22.100Z,82.90
2022-08-29T18:00:52.485Z,83.10
2022-08-29T18:03:21.527Z,83.70
2022-08-29T18:05:50.084Z,83.80
2022-08-29T18:08:18.722Z,84.40
2022-08-29T18:10:47.642Z,84.40
2022-08-29T18:13:21.423Z,84.30
2022-08-29T18:15:52.602Z,84.50
2022-08-29T18:18:22.017Z,84.60
2022-08-29T18:20:51.023Z,84.70
2022-08-29T18:23:19.617Z,84.80
2022-08-29T18:25:48.134Z,85.30
2022-08-29T18:28:18.381Z,85.70
2022-08-29T18:30:47.103Z,85.30
2022-08-29T18:33:15.592Z,85.60
2022-08-29T18:35:44.345Z,85.90
2022-08-29T18:38:13.269Z,86.00
2022-08-29T18:40:42.062Z,86.10
2022-08-29T18:43:11.257Z,86.40
2022-08-29T18:45:42.979Z,86.40
2022-08-29T18:48:12.358Z,86.90
2022-08-29T18:50:40.828Z,86.90
2022-08-29T18:53:11.970Z,87.20
2022-08-29T18:55:44.987Z,87.10
2022-08-29T18:58:18.603Z,87.50
2022-08-29T19:00:49.203Z,87.70
2022-08-29T19:03:18.391Z,87.90
2022-08-29T19:05:49.561Z,88.10
2022-08-29T19:08:19.661Z,88.10
2022-08-29T19:10:49.549Z,88.10
2022-08-29T19:13:22.727Z,88.10
2022-08-29T19:16:00.544Z,88.10
2022-08-29T19:18:29.794Z,88.20
2022-08-29T19:21:02.920Z,88.40
2022-08-29T19:23:32.818Z,88.60
2022-08-29T19:26:01.856Z,88.50
2022-08-29T19:28:30.650Z,88.90
2022-08-29T19:31:02.528Z,89.00
2022-08-29T19:33:31.827Z,89.20
2022-08-29T19:36:01.267Z,89.70
2022-08-29T19:38:31.693Z,89.90
2022-08-29T19:41:00.565Z,90.10
2022-08-29T19:43:31.055Z,90.10
2022-08-29T19:46:03.809Z,89.70
2022-08-29T19:48:32.816Z,89.60
2022-08-29T19:51:03.433Z,89.60
2022-08-29T19:53:32.015Z,89.70
2022-08-29T19:56:00.972Z,90.10
2022-08-29T19:58:32.384Z,90.20
2022-08-29T20:01:07.264Z,90.70
2022-08-29T20:03:39.726Z,90.70
2022-08-29T20:06:09.716Z,90.70
2022-08-29T20:08:45.522Z,90.70
2022-08-29T20:11:16.286Z,91.20
2022-08-29T20:13:50.603Z,91.20
2022-08-29T20:16:31.693Z,91.30
2022-08-29T20:19:02.869Z,91.40
2022-08-29T20:21:35.178Z,91.40
2022-08-29T20:24:08.654Z,91.50
2022-08-29T20:26:39.651Z,91.50
2022-08-29T20:29:16.519Z,91.60
2022-08-29T20:31:46.984Z,91.70
2022-08-29T20:34:18.384Z,91.60
2022-08-29T20:37:07.520Z,91.50
2022-08-29T20:39:39.312Z,91.40
2022-08-29T20:42:10.544Z,91.70
2022-08-29T20:44:43.618Z,91.50
2022-08-29T20:47:16.555Z,91.50
2022-08-29T20:49:51.668Z,91.70
2022-08-29T20:52:22.035Z,91.80
2022-08-29T20:54:51.129Z,92.30
2022-08-29T20:57:21.307Z,92.40
2022-08-29T20:59:50.611Z,92.70
2022-08-29T21:02:23.353Z,92.60
2022-08-29T21:05:10.080Z,92.80
2022-08-29T21:07:43.213Z,92.90
2022-08-29T21:10:16.419Z,93.20
2022-08-29T21:12:45.203Z,93.30
2022-08-29T21:15:14.547Z,93.60
2022-08-29T21:17:44.516Z,93.50
2022-08-29T21:20:14.487Z,93.60
2022-08-29T21:22:44.388Z,94.00
2022-08-29T21:25:13.757Z,93.90
2022-08-29T21:27:43.182Z,94.00
2022-08-29T21:30:13.224Z,93.70
2022-08-29T21:32:43.518Z,94.30
2022-08-29T21:35:12.374Z,94.60
2022-08-29T21:37:41.396Z,94.50
2022-08-29T21:40:17.466Z,94.80
2022-08-29T21:42:46.363Z,95.90
2022-08-29T21:45:15.604Z,96.60
2022-08-29T21:47:55.033Z,97.20
2022-08-29T21:50:25.736Z,96.80
2022-08-29T21:52:54.556Z,97.70
2022-08-29T21:55:24.681Z,98.40
2022-08-29T21:57:52.536Z,98.00
2022-08-29T22:00:22.258Z,97.80
2022-08-29T22:02:54.701Z,98.00
2022-08-29T22:05:30.884Z,97.90
2022-08-29T22:08:01.068Z,98.70
2022-08-29T22:10:35.258Z,98.30
2022-08-29T22:13:21.091Z,97.50
2022-08-29T22:16:08.411Z,98.30
2022-08-29T22:18:48.403Z,98.70
2022-08-29T22:21:19.816Z,99.30
2022-08-29T22:23:50.466Z,99.90
2022-08-29T22:26:19.633Z,99.90
2022-08-29T22:28:48.394Z,99.90
2022-08-29T22:31:17.902Z,99.80
2022-08-29T22:33:49.908Z,99.90
2022-08-29T22:36:20.002Z,99.90
2022-08-29T22:38:56.446Z,99.90
2022-08-29T22:41:28.687Z,99.90
2022-08-29T22:46:52.990Z,99.90
2022-08-29T22:49:40.409Z,99.90
2022-08-29T22:52:13.338Z,99.90
2022-08-29T22:54:45.101Z,99.90
2022-08-29T22:57:19.065Z,99.90
2022-08-29T22:59:49.838Z,99.90
2022-08-29T23:02:23.340Z,99.90
2022-08-29T23:04:53.648Z,99.90
2022-08-29T23:07:22.053Z,99.90
2022-08-29T23:09:50.820Z,99.90
2022-08-29T23:12:20.251Z,99.90
2022-08-29T23:14:49.399Z,99.90
2022-08-29T23:17:18.821Z,99.90
2022-08-29T23:19:49.928Z,99.90
2022-08-29T23:22:20.268Z,99.90
2022-08-29T23:24:58.543Z,99.90
2022-08-29T23:27:28.709Z,99.90
2022-08-29T23:29:57.907Z,99.90
2022-08-29T23:32:26.557Z,99.90
2022-08-29T23:34:56.721Z,99.90
2022-08-29T23:37:27.266Z,99.90
2022-08-29T23:39:56.039Z,99.90
2022-08-29T23:42:25.813Z,99.90
2022-08-29T23:44:54.788Z,99.90
2022-08-29T23:47:23.256Z,99.90
2022-08-29T23:49:52.110Z,99.90
2022-08-29T23:52:21.504Z,99.90
2022-08-29T23:54:51.458Z,99.90
2022-08-29T23:57:19.929Z,99.90
